﻿<?xml version="1.0" encoding="UTF-8" standalone="no" ?>
<gpx xmlns="http://www.topografix.com/GPX/1/1" creator="CompeGPS" version="1.1" xmlns:xsi="http://www.w3.org/2001/XMLSchema-instance" xsi:schemaLocation="http://www.topografix.com/GPX/1/1 http://www.topografix.com/GPX/1/1/gpx.xsd http://www.garmin.com/xmlschemas/GpxExtensions/v3 http://www.garmin.com/xmlschemas/GpxExtensionsv3.xsd http://www.garmin.com/xmlschemas/TrackPointExtension/v1 http://www.garmin.com/xmlschemas/TrackPointExtensionv1.xsd" xmlns:gpxtpx="http://www.garmin.com/xmlschemas/TrackPointExtension/v1">
  <metadata>
    <link href="http://www.compegps.com">
      <text>CompeGPS TEAM, SL</text>
    </link>
    <time>2018-06-24T18:45:25Z</time>
    <bounds maxlat="42.144177" maxlon="1.595789" minlat="42.136045" minlon="1.584664"/>
  </metadata>
  <trk>
    <name>Track_CAMI POMERES</name>
    <userMyTwoNav></userMyTwoNav>
    <serialNumber></serialNumber>
    <trkseg>
      <trkpt lat="42.136045" lon="1.592174">
        <ele>910.0</ele>
      </trkpt>
      <trkpt lat="42.136058" lon="1.592079">
        <ele>910.0</ele>
      </trkpt>
      <trkpt lat="42.136085" lon="1.592012">
        <ele>910.0</ele>
      </trkpt>
      <trkpt lat="42.136056" lon="1.591962">
        <ele>910.0</ele>
      </trkpt>
      <trkpt lat="42.136098" lon="1.591873">
        <ele>910.0</ele>
      </trkpt>
      <trkpt lat="42.136115" lon="1.591762">
        <ele>910.0</ele>
      </trkpt>
      <trkpt lat="42.136147" lon="1.591698">
        <ele>910.0</ele>
      </trkpt>
      <trkpt lat="42.136187" lon="1.591637">
        <ele>910.0</ele>
      </trkpt>
      <trkpt lat="42.136240" lon="1.591585">
        <ele>910.0</ele>
      </trkpt>
      <trkpt lat="42.136279" lon="1.591531">
        <ele>910.0</ele>
      </trkpt>
      <trkpt lat="42.136349" lon="1.591475">
        <ele>910.0</ele>
      </trkpt>
      <trkpt lat="42.136408" lon="1.591461">
        <ele>910.0</ele>
      </trkpt>
      <trkpt lat="42.136447" lon="1.591397">
        <ele>910.0</ele>
      </trkpt>
      <trkpt lat="42.136493" lon="1.591332">
        <ele>910.0</ele>
        <time>2018-06-24T08:22:57Z</time>
      </trkpt>
      <trkpt lat="42.136637" lon="1.591227">
        <ele>912.0</ele>
        <time>2018-06-24T08:23:09Z</time>
      </trkpt>
      <trkpt lat="42.136688" lon="1.591200">
        <ele>912.9</ele>
        <time>2018-06-24T08:23:14Z</time>
      </trkpt>
      <trkpt lat="42.136805" lon="1.590996">
        <ele>914.3</ele>
        <time>2018-06-24T08:23:26Z</time>
      </trkpt>
      <trkpt lat="42.136918" lon="1.590848">
        <ele>915.8</ele>
        <time>2018-06-24T08:23:36Z</time>
      </trkpt>
      <trkpt lat="42.136920" lon="1.590821">
        <ele>916.3</ele>
        <time>2018-06-24T08:23:37Z</time>
      </trkpt>
      <trkpt lat="42.136954" lon="1.590795">
        <ele>916.7</ele>
        <time>2018-06-24T08:23:42Z</time>
      </trkpt>
      <trkpt lat="42.137091" lon="1.590770">
        <ele>917.7</ele>
        <time>2018-06-24T08:23:54Z</time>
      </trkpt>
      <trkpt lat="42.137097" lon="1.590721">
        <ele>917.7</ele>
        <time>2018-06-24T08:23:56Z</time>
      </trkpt>
      <trkpt lat="42.137264" lon="1.590610">
        <ele>919.2</ele>
        <time>2018-06-24T08:24:07Z</time>
      </trkpt>
      <trkpt lat="42.137318" lon="1.590636">
        <ele>919.2</ele>
        <time>2018-06-24T08:24:09Z</time>
      </trkpt>
      <trkpt lat="42.137419" lon="1.590693">
        <ele>919.6</ele>
        <time>2018-06-24T08:24:19Z</time>
      </trkpt>
      <trkpt lat="42.137581" lon="1.590767">
        <ele>920.6</ele>
        <time>2018-06-24T08:24:29Z</time>
      </trkpt>
      <trkpt lat="42.137732" lon="1.590767">
        <ele>921.6</ele>
        <time>2018-06-24T08:24:40Z</time>
      </trkpt>
      <trkpt lat="42.137866" lon="1.590668">
        <ele>921.6</ele>
        <time>2018-06-24T08:24:52Z</time>
      </trkpt>
      <trkpt lat="42.137996" lon="1.590588">
        <ele>922.0</ele>
        <time>2018-06-24T08:25:03Z</time>
      </trkpt>
      <trkpt lat="42.137998" lon="1.590578">
        <ele>922.5</ele>
        <time>2018-06-24T08:25:04Z</time>
      </trkpt>
      <trkpt lat="42.138055" lon="1.590520">
        <ele>922.5</ele>
        <time>2018-06-24T08:25:09Z</time>
      </trkpt>
      <trkpt lat="42.138161" lon="1.590437">
        <ele>923.5</ele>
        <time>2018-06-24T08:25:18Z</time>
      </trkpt>
      <trkpt lat="42.138266" lon="1.590289">
        <ele>923.5</ele>
        <time>2018-06-24T08:25:29Z</time>
      </trkpt>
      <trkpt lat="42.138252" lon="1.590238">
        <ele>924.0</ele>
        <time>2018-06-24T08:25:38Z</time>
      </trkpt>
      <trkpt lat="42.138311" lon="1.590171">
        <ele>924.9</ele>
        <time>2018-06-24T08:25:56Z</time>
      </trkpt>
      <trkpt lat="42.138375" lon="1.590064">
        <ele>925.4</ele>
        <time>2018-06-24T08:26:01Z</time>
      </trkpt>
      <trkpt lat="42.138379" lon="1.590046">
        <ele>925.4</ele>
        <time>2018-06-24T08:26:02Z</time>
      </trkpt>
      <trkpt lat="42.138467" lon="1.589878">
        <ele>926.4</ele>
        <time>2018-06-24T08:26:13Z</time>
      </trkpt>
      <trkpt lat="42.138469" lon="1.589867">
        <ele>926.4</ele>
        <time>2018-06-24T08:26:14Z</time>
      </trkpt>
      <trkpt lat="42.138519" lon="1.589789">
        <ele>926.8</ele>
        <time>2018-06-24T08:26:18Z</time>
      </trkpt>
      <trkpt lat="42.138632" lon="1.589490">
        <ele>926.8</ele>
        <time>2018-06-24T08:26:29Z</time>
      </trkpt>
      <trkpt lat="42.138661" lon="1.589447">
        <ele>927.3</ele>
        <time>2018-06-24T08:26:40Z</time>
      </trkpt>
      <trkpt lat="42.138732" lon="1.589123">
        <ele>926.8</ele>
        <time>2018-06-24T08:26:50Z</time>
      </trkpt>
      <trkpt lat="42.138843" lon="1.588898">
        <ele>926.4</ele>
        <time>2018-06-24T08:26:58Z</time>
      </trkpt>
      <trkpt lat="42.138867" lon="1.588847">
        <ele>927.3</ele>
        <time>2018-06-24T08:27:00Z</time>
      </trkpt>
      <trkpt lat="42.138943" lon="1.588711">
        <ele>926.8</ele>
        <time>2018-06-24T08:27:09Z</time>
      </trkpt>
      <trkpt lat="42.138959" lon="1.588667">
        <ele>927.3</ele>
        <time>2018-06-24T08:27:22Z</time>
      </trkpt>
      <trkpt lat="42.138976" lon="1.588629">
        <ele>926.4</ele>
        <time>2018-06-24T08:27:32Z</time>
      </trkpt>
      <trkpt lat="42.138997" lon="1.588594">
        <ele>926.4</ele>
        <time>2018-06-24T08:27:35Z</time>
      </trkpt>
      <trkpt lat="42.139040" lon="1.588553">
        <ele>926.8</ele>
        <time>2018-06-24T08:27:38Z</time>
      </trkpt>
      <trkpt lat="42.139337" lon="1.588289">
        <ele>926.8</ele>
        <time>2018-06-24T08:27:51Z</time>
      </trkpt>
      <trkpt lat="42.139598" lon="1.588088">
        <ele>926.8</ele>
        <time>2018-06-24T08:28:04Z</time>
      </trkpt>
      <trkpt lat="42.139723" lon="1.587988">
        <ele>927.3</ele>
        <time>2018-06-24T08:28:18Z</time>
      </trkpt>
      <trkpt lat="42.139729" lon="1.587979">
        <ele>927.8</ele>
        <time>2018-06-24T08:28:27Z</time>
      </trkpt>
      <trkpt lat="42.139747" lon="1.587963">
        <ele>927.3</ele>
        <time>2018-06-24T08:28:30Z</time>
      </trkpt>
      <trkpt lat="42.139843" lon="1.587881">
        <ele>927.8</ele>
        <time>2018-06-24T08:28:35Z</time>
      </trkpt>
      <trkpt lat="42.140145" lon="1.587593">
        <ele>929.2</ele>
        <time>2018-06-24T08:28:48Z</time>
      </trkpt>
      <trkpt lat="42.140273" lon="1.587433">
        <ele>930.2</ele>
        <time>2018-06-24T08:29:00Z</time>
      </trkpt>
      <trkpt lat="42.140287" lon="1.587315">
        <ele>930.2</ele>
        <time>2018-06-24T08:29:14Z</time>
      </trkpt>
      <trkpt lat="42.140444" lon="1.587005">
        <ele>930.7</ele>
        <time>2018-06-24T08:29:25Z</time>
      </trkpt>
      <trkpt lat="42.140496" lon="1.586859">
        <ele>930.7</ele>
        <time>2018-06-24T08:29:37Z</time>
      </trkpt>
      <trkpt lat="42.140501" lon="1.586844">
        <ele>931.2</ele>
        <time>2018-06-24T08:29:39Z</time>
      </trkpt>
      <trkpt lat="42.140522" lon="1.586797">
        <ele>931.2</ele>
        <time>2018-06-24T08:29:41Z</time>
      </trkpt>
      <trkpt lat="42.140669" lon="1.586499">
        <ele>931.2</ele>
        <time>2018-06-24T08:29:53Z</time>
      </trkpt>
      <trkpt lat="42.140671" lon="1.586474">
        <ele>932.1</ele>
        <time>2018-06-24T08:29:59Z</time>
      </trkpt>
      <trkpt lat="42.140754" lon="1.586248">
        <ele>932.1</ele>
        <time>2018-06-24T08:30:07Z</time>
      </trkpt>
      <trkpt lat="42.140862" lon="1.586007">
        <ele>931.7</ele>
        <time>2018-06-24T08:30:17Z</time>
      </trkpt>
      <trkpt lat="42.140832" lon="1.586034">
        <ele>931.7</ele>
        <time>2018-06-24T08:30:27Z</time>
      </trkpt>
      <trkpt lat="42.140827" lon="1.586021">
        <ele>931.7</ele>
        <time>2018-06-24T08:30:31Z</time>
      </trkpt>
      <trkpt lat="42.140844" lon="1.585892">
        <ele>931.7</ele>
        <time>2018-06-24T08:30:35Z</time>
      </trkpt>
      <trkpt lat="42.140908" lon="1.585464">
        <ele>931.7</ele>
        <time>2018-06-24T08:30:47Z</time>
      </trkpt>
      <trkpt lat="42.140918" lon="1.585364">
        <ele>931.7</ele>
        <time>2018-06-24T08:30:58Z</time>
      </trkpt>
      <trkpt lat="42.140915" lon="1.585357">
        <ele>931.7</ele>
        <time>2018-06-24T08:31:00Z</time>
      </trkpt>
      <trkpt lat="42.140926" lon="1.585320">
        <ele>931.7</ele>
        <time>2018-06-24T08:31:03Z</time>
      </trkpt>
      <trkpt lat="42.140962" lon="1.584934">
        <ele>931.7</ele>
        <time>2018-06-24T08:31:15Z</time>
      </trkpt>
      <trkpt lat="42.140953" lon="1.584885">
        <ele>929.7</ele>
        <time>2018-06-24T08:31:23Z</time>
      </trkpt>
      <trkpt lat="42.140944" lon="1.584899">
        <ele>928.8</ele>
        <time>2018-06-24T08:31:27Z</time>
      </trkpt>
      <trkpt lat="42.141007" lon="1.584977">
        <ele>926.8</ele>
        <time>2018-06-24T08:31:33Z</time>
      </trkpt>
      <trkpt lat="42.141032" lon="1.584983">
        <ele>926.4</ele>
        <time>2018-06-24T08:31:34Z</time>
      </trkpt>
      <trkpt lat="42.141084" lon="1.584979">
        <ele>925.9</ele>
        <time>2018-06-24T08:31:36Z</time>
      </trkpt>
      <trkpt lat="42.141123" lon="1.584960">
        <ele>923.5</ele>
        <time>2018-06-24T08:31:40Z</time>
      </trkpt>
      <trkpt lat="42.141298" lon="1.584869">
        <ele>923.0</ele>
        <time>2018-06-24T08:31:52Z</time>
      </trkpt>
      <trkpt lat="42.141365" lon="1.584815">
        <ele>922.5</ele>
        <time>2018-06-24T08:32:02Z</time>
      </trkpt>
      <trkpt lat="42.141399" lon="1.584750">
        <ele>924.5</ele>
        <time>2018-06-24T08:32:07Z</time>
      </trkpt>
      <trkpt lat="42.141467" lon="1.584664">
        <ele>927.8</ele>
        <time>2018-06-24T08:32:18Z</time>
      </trkpt>
      <trkpt lat="42.141467" lon="1.584664">
        <ele>927.8</ele>
        <time>2018-06-24T08:32:19Z</time>
      </trkpt>
      <trkpt lat="42.141475" lon="1.584688">
        <ele>928.8</ele>
        <time>2018-06-24T08:32:21Z</time>
      </trkpt>
      <trkpt lat="42.141479" lon="1.584762">
        <ele>929.7</ele>
        <time>2018-06-24T08:32:26Z</time>
      </trkpt>
      <trkpt lat="42.141523" lon="1.584908">
        <ele>930.7</ele>
        <time>2018-06-24T08:32:36Z</time>
      </trkpt>
      <trkpt lat="42.141540" lon="1.584991">
        <ele>930.7</ele>
        <time>2018-06-24T08:32:42Z</time>
      </trkpt>
      <trkpt lat="42.141572" lon="1.584866">
        <ele>933.6</ele>
        <time>2018-06-24T08:32:52Z</time>
      </trkpt>
      <trkpt lat="42.141618" lon="1.584814">
        <ele>935.5</ele>
        <time>2018-06-24T08:33:01Z</time>
      </trkpt>
      <trkpt lat="42.141650" lon="1.584850">
        <ele>936.0</ele>
        <time>2018-06-24T08:33:05Z</time>
      </trkpt>
      <trkpt lat="42.141683" lon="1.585004">
        <ele>936.9</ele>
        <time>2018-06-24T08:33:15Z</time>
      </trkpt>
      <trkpt lat="42.141720" lon="1.585223">
        <ele>936.9</ele>
        <time>2018-06-24T08:33:26Z</time>
      </trkpt>
      <trkpt lat="42.141726" lon="1.585229">
        <ele>936.5</ele>
        <time>2018-06-24T08:33:31Z</time>
      </trkpt>
      <trkpt lat="42.141808" lon="1.585521">
        <ele>937.4</ele>
        <time>2018-06-24T08:33:44Z</time>
      </trkpt>
      <trkpt lat="42.141858" lon="1.585769">
        <ele>937.4</ele>
        <time>2018-06-24T08:34:00Z</time>
      </trkpt>
      <trkpt lat="42.141870" lon="1.585797">
        <ele>936.9</ele>
        <time>2018-06-24T08:34:03Z</time>
      </trkpt>
      <trkpt lat="42.141896" lon="1.585885">
        <ele>937.4</ele>
        <time>2018-06-24T08:34:06Z</time>
      </trkpt>
      <trkpt lat="42.141908" lon="1.585929">
        <ele>937.4</ele>
        <time>2018-06-24T08:34:12Z</time>
      </trkpt>
      <trkpt lat="42.141934" lon="1.586068">
        <ele>936.5</ele>
        <time>2018-06-24T08:34:20Z</time>
      </trkpt>
      <trkpt lat="42.141958" lon="1.586190">
        <ele>936.9</ele>
        <time>2018-06-24T08:34:27Z</time>
      </trkpt>
      <trkpt lat="42.141999" lon="1.586263">
        <ele>936.5</ele>
        <time>2018-06-24T08:34:35Z</time>
      </trkpt>
      <trkpt lat="42.142065" lon="1.586445">
        <ele>935.5</ele>
        <time>2018-06-24T08:34:45Z</time>
      </trkpt>
      <trkpt lat="42.142116" lon="1.586572">
        <ele>935.0</ele>
        <time>2018-06-24T08:34:53Z</time>
      </trkpt>
      <trkpt lat="42.142155" lon="1.586631">
        <ele>934.1</ele>
        <time>2018-06-24T08:34:58Z</time>
      </trkpt>
      <trkpt lat="42.142207" lon="1.586670">
        <ele>934.1</ele>
        <time>2018-06-24T08:35:03Z</time>
      </trkpt>
      <trkpt lat="42.142234" lon="1.586729">
        <ele>933.6</ele>
        <time>2018-06-24T08:35:07Z</time>
      </trkpt>
      <trkpt lat="42.142307" lon="1.586888">
        <ele>932.6</ele>
        <time>2018-06-24T08:35:13Z</time>
      </trkpt>
      <trkpt lat="42.142370" lon="1.586876">
        <ele>930.7</ele>
        <time>2018-06-24T08:35:22Z</time>
      </trkpt>
      <trkpt lat="42.142403" lon="1.586924">
        <ele>930.7</ele>
        <time>2018-06-24T08:35:25Z</time>
      </trkpt>
      <trkpt lat="42.142554" lon="1.587091">
        <ele>929.7</ele>
        <time>2018-06-24T08:35:34Z</time>
      </trkpt>
      <trkpt lat="42.142628" lon="1.587160">
        <ele>927.8</ele>
        <time>2018-06-24T08:35:45Z</time>
      </trkpt>
      <trkpt lat="42.142629" lon="1.587162">
        <ele>928.3</ele>
        <time>2018-06-24T08:35:46Z</time>
      </trkpt>
      <trkpt lat="42.142700" lon="1.587301">
        <ele>927.8</ele>
        <time>2018-06-24T08:35:51Z</time>
      </trkpt>
      <trkpt lat="42.142754" lon="1.587372">
        <ele>926.4</ele>
        <time>2018-06-24T08:36:01Z</time>
      </trkpt>
      <trkpt lat="42.142792" lon="1.587444">
        <ele>925.9</ele>
        <time>2018-06-24T08:36:05Z</time>
      </trkpt>
      <trkpt lat="42.142969" lon="1.587693">
        <ele>924.9</ele>
        <time>2018-06-24T08:36:17Z</time>
      </trkpt>
      <trkpt lat="42.142981" lon="1.587694">
        <ele>924.0</ele>
        <time>2018-06-24T08:36:22Z</time>
      </trkpt>
      <trkpt lat="42.143018" lon="1.587736">
        <ele>924.0</ele>
        <time>2018-06-24T08:36:25Z</time>
      </trkpt>
      <trkpt lat="42.143197" lon="1.587979">
        <ele>922.5</ele>
        <time>2018-06-24T08:36:35Z</time>
      </trkpt>
      <trkpt lat="42.143236" lon="1.588010">
        <ele>922.5</ele>
        <time>2018-06-24T08:36:40Z</time>
      </trkpt>
      <trkpt lat="42.143328" lon="1.588151">
        <ele>921.1</ele>
        <time>2018-06-24T08:36:51Z</time>
      </trkpt>
      <trkpt lat="42.143351" lon="1.588357">
        <ele>920.1</ele>
        <time>2018-06-24T08:36:58Z</time>
      </trkpt>
      <trkpt lat="42.143376" lon="1.588349">
        <ele>920.1</ele>
        <time>2018-06-24T08:37:02Z</time>
      </trkpt>
      <trkpt lat="42.143408" lon="1.588406">
        <ele>919.6</ele>
        <time>2018-06-24T08:37:07Z</time>
      </trkpt>
      <trkpt lat="42.143447" lon="1.588692">
        <ele>918.2</ele>
        <time>2018-06-24T08:37:19Z</time>
      </trkpt>
      <trkpt lat="42.143458" lon="1.588701">
        <ele>917.7</ele>
        <time>2018-06-24T08:37:23Z</time>
      </trkpt>
      <trkpt lat="42.143484" lon="1.588854">
        <ele>916.7</ele>
        <time>2018-06-24T08:37:30Z</time>
      </trkpt>
      <trkpt lat="42.143567" lon="1.589107">
        <ele>915.8</ele>
        <time>2018-06-24T08:37:41Z</time>
      </trkpt>
      <trkpt lat="42.143564" lon="1.589105">
        <ele>915.8</ele>
        <time>2018-06-24T08:37:44Z</time>
      </trkpt>
      <trkpt lat="42.143580" lon="1.589257">
        <ele>914.8</ele>
        <time>2018-06-24T08:37:51Z</time>
      </trkpt>
      <trkpt lat="42.143625" lon="1.589478">
        <ele>913.9</ele>
        <time>2018-06-24T08:38:02Z</time>
      </trkpt>
      <trkpt lat="42.143635" lon="1.589516">
        <ele>913.4</ele>
        <time>2018-06-24T08:38:05Z</time>
      </trkpt>
      <trkpt lat="42.143663" lon="1.589768">
        <ele>912.9</ele>
        <time>2018-06-24T08:38:16Z</time>
      </trkpt>
      <trkpt lat="42.143679" lon="1.589762">
        <ele>912.0</ele>
        <time>2018-06-24T08:38:20Z</time>
      </trkpt>
      <trkpt lat="42.143708" lon="1.589860">
        <ele>911.5</ele>
        <time>2018-06-24T08:38:24Z</time>
      </trkpt>
      <trkpt lat="42.143775" lon="1.589989">
        <ele>911.5</ele>
        <time>2018-06-24T08:38:31Z</time>
      </trkpt>
      <trkpt lat="42.143820" lon="1.589985">
        <ele>911.0</ele>
        <time>2018-06-24T08:38:35Z</time>
      </trkpt>
      <trkpt lat="42.143876" lon="1.590042">
        <ele>910.5</ele>
        <time>2018-06-24T08:38:38Z</time>
      </trkpt>
      <trkpt lat="42.143962" lon="1.590277">
        <ele>909.5</ele>
        <time>2018-06-24T08:38:48Z</time>
      </trkpt>
      <trkpt lat="42.143961" lon="1.590276">
        <ele>909.5</ele>
        <time>2018-06-24T08:38:49Z</time>
      </trkpt>
      <trkpt lat="42.143992" lon="1.590317">
        <ele>908.6</ele>
        <time>2018-06-24T08:38:54Z</time>
      </trkpt>
      <trkpt lat="42.144140" lon="1.590499">
        <ele>907.6</ele>
        <time>2018-06-24T08:39:08Z</time>
      </trkpt>
      <trkpt lat="42.144177" lon="1.590543">
        <ele>907.1</ele>
        <time>2018-06-24T08:39:13Z</time>
      </trkpt>
      <trkpt lat="42.144080" lon="1.590771">
        <ele>904.7</ele>
        <time>2018-06-24T08:39:24Z</time>
      </trkpt>
      <trkpt lat="42.144086" lon="1.590777">
        <ele>904.7</ele>
        <time>2018-06-24T08:39:27Z</time>
      </trkpt>
      <trkpt lat="42.144093" lon="1.590829">
        <ele>904.7</ele>
        <time>2018-06-24T08:39:30Z</time>
      </trkpt>
      <trkpt lat="42.144091" lon="1.591082">
        <ele>903.3</ele>
        <time>2018-06-24T08:39:38Z</time>
      </trkpt>
      <trkpt lat="42.144067" lon="1.591200">
        <ele>902.8</ele>
        <time>2018-06-24T08:39:49Z</time>
      </trkpt>
      <trkpt lat="42.143971" lon="1.591275">
        <ele>902.3</ele>
        <time>2018-06-24T08:39:54Z</time>
      </trkpt>
      <trkpt lat="42.143873" lon="1.591348">
        <ele>901.8</ele>
        <time>2018-06-24T08:40:04Z</time>
      </trkpt>
      <trkpt lat="42.143712" lon="1.591208">
        <ele>901.4</ele>
        <time>2018-06-24T08:40:14Z</time>
      </trkpt>
      <trkpt lat="42.143668" lon="1.591204">
        <ele>900.9</ele>
        <time>2018-06-24T08:40:18Z</time>
      </trkpt>
      <trkpt lat="42.143568" lon="1.591058">
        <ele>901.4</ele>
        <time>2018-06-24T08:40:27Z</time>
      </trkpt>
      <trkpt lat="42.143546" lon="1.590957">
        <ele>900.9</ele>
        <time>2018-06-24T08:40:32Z</time>
      </trkpt>
      <trkpt lat="42.143518" lon="1.590937">
        <ele>900.4</ele>
        <time>2018-06-24T08:40:36Z</time>
      </trkpt>
      <trkpt lat="42.143515" lon="1.590822">
        <ele>900.4</ele>
        <time>2018-06-24T08:40:43Z</time>
      </trkpt>
      <trkpt lat="42.143462" lon="1.590745">
        <ele>900.4</ele>
        <time>2018-06-24T08:40:49Z</time>
      </trkpt>
      <trkpt lat="42.143447" lon="1.590743">
        <ele>900.4</ele>
        <time>2018-06-24T08:40:51Z</time>
      </trkpt>
      <trkpt lat="42.143402" lon="1.590609">
        <ele>899.9</ele>
        <time>2018-06-24T08:41:00Z</time>
      </trkpt>
      <trkpt lat="42.143393" lon="1.590597">
        <ele>899.9</ele>
        <time>2018-06-24T08:41:01Z</time>
      </trkpt>
      <trkpt lat="42.143361" lon="1.590539">
        <ele>900.4</ele>
        <time>2018-06-24T08:41:11Z</time>
      </trkpt>
      <trkpt lat="42.143364" lon="1.590545">
        <ele>900.9</ele>
        <time>2018-06-24T08:41:30Z</time>
      </trkpt>
      <trkpt lat="42.143364" lon="1.590551">
        <ele>900.4</ele>
        <time>2018-06-24T08:41:49Z</time>
      </trkpt>
      <trkpt lat="42.143372" lon="1.590555">
        <ele>901.4</ele>
        <time>2018-06-24T08:42:05Z</time>
      </trkpt>
      <trkpt lat="42.143380" lon="1.590540">
        <ele>901.4</ele>
        <time>2018-06-24T08:42:18Z</time>
      </trkpt>
      <trkpt lat="42.143398" lon="1.590524">
        <ele>901.4</ele>
        <time>2018-06-24T08:42:32Z</time>
      </trkpt>
      <trkpt lat="42.143393" lon="1.590528">
        <ele>901.4</ele>
        <time>2018-06-24T08:42:48Z</time>
      </trkpt>
      <trkpt lat="42.143391" lon="1.590533">
        <ele>901.8</ele>
        <time>2018-06-24T08:43:05Z</time>
      </trkpt>
      <trkpt lat="42.143384" lon="1.590527">
        <ele>901.8</ele>
        <time>2018-06-24T08:43:17Z</time>
      </trkpt>
      <trkpt lat="42.143363" lon="1.590527">
        <ele>901.4</ele>
        <time>2018-06-24T08:43:30Z</time>
      </trkpt>
      <trkpt lat="42.143344" lon="1.590480">
        <ele>901.4</ele>
        <time>2018-06-24T08:43:39Z</time>
      </trkpt>
      <trkpt lat="42.143310" lon="1.590442">
        <ele>901.8</ele>
        <time>2018-06-24T08:43:43Z</time>
      </trkpt>
      <trkpt lat="42.143244" lon="1.590330">
        <ele>901.4</ele>
        <time>2018-06-24T08:43:52Z</time>
      </trkpt>
      <trkpt lat="42.143052" lon="1.590246">
        <ele>900.4</ele>
        <time>2018-06-24T08:44:02Z</time>
      </trkpt>
      <trkpt lat="42.142981" lon="1.590261">
        <ele>899.0</ele>
        <time>2018-06-24T08:44:11Z</time>
      </trkpt>
      <trkpt lat="42.142891" lon="1.590261">
        <ele>898.5</ele>
        <time>2018-06-24T08:44:16Z</time>
      </trkpt>
      <trkpt lat="42.142815" lon="1.590291">
        <ele>897.5</ele>
        <time>2018-06-24T08:44:21Z</time>
      </trkpt>
      <trkpt lat="42.142798" lon="1.590342">
        <ele>895.1</ele>
        <time>2018-06-24T08:44:28Z</time>
      </trkpt>
      <trkpt lat="42.142762" lon="1.590358">
        <ele>894.6</ele>
        <time>2018-06-24T08:44:30Z</time>
      </trkpt>
      <trkpt lat="42.142706" lon="1.590385">
        <ele>894.2</ele>
        <time>2018-06-24T08:44:38Z</time>
      </trkpt>
      <trkpt lat="42.142622" lon="1.590339">
        <ele>893.2</ele>
        <time>2018-06-24T08:44:45Z</time>
      </trkpt>
      <trkpt lat="42.142551" lon="1.590296">
        <ele>890.3</ele>
        <time>2018-06-24T08:44:54Z</time>
      </trkpt>
      <trkpt lat="42.142528" lon="1.590218">
        <ele>890.3</ele>
        <time>2018-06-24T08:44:59Z</time>
      </trkpt>
      <trkpt lat="42.142431" lon="1.590154">
        <ele>889.4</ele>
        <time>2018-06-24T08:45:05Z</time>
      </trkpt>
      <trkpt lat="42.142391" lon="1.590231">
        <ele>889.8</ele>
        <time>2018-06-24T08:45:14Z</time>
      </trkpt>
      <trkpt lat="42.142371" lon="1.590354">
        <ele>889.8</ele>
        <time>2018-06-24T08:45:22Z</time>
      </trkpt>
      <trkpt lat="42.142308" lon="1.590576">
        <ele>890.3</ele>
        <time>2018-06-24T08:45:32Z</time>
      </trkpt>
      <trkpt lat="42.142244" lon="1.590767">
        <ele>892.2</ele>
        <time>2018-06-24T08:45:44Z</time>
      </trkpt>
      <trkpt lat="42.142150" lon="1.590982">
        <ele>893.7</ele>
        <time>2018-06-24T08:45:56Z</time>
      </trkpt>
      <trkpt lat="42.142106" lon="1.591063">
        <ele>895.6</ele>
        <time>2018-06-24T08:46:04Z</time>
      </trkpt>
      <trkpt lat="42.141999" lon="1.591127">
        <ele>897.0</ele>
        <time>2018-06-24T08:46:13Z</time>
      </trkpt>
      <trkpt lat="42.141947" lon="1.591179">
        <ele>898.0</ele>
        <time>2018-06-24T08:46:18Z</time>
      </trkpt>
      <trkpt lat="42.141898" lon="1.591199">
        <ele>899.5</ele>
        <time>2018-06-24T08:46:23Z</time>
      </trkpt>
      <trkpt lat="42.141858" lon="1.591152">
        <ele>899.9</ele>
        <time>2018-06-24T08:46:28Z</time>
      </trkpt>
      <trkpt lat="42.141799" lon="1.591145">
        <ele>901.4</ele>
        <time>2018-06-24T08:46:34Z</time>
      </trkpt>
      <trkpt lat="42.141719" lon="1.591069">
        <ele>900.9</ele>
        <time>2018-06-24T08:46:42Z</time>
      </trkpt>
      <trkpt lat="42.141632" lon="1.591027">
        <ele>899.9</ele>
        <time>2018-06-24T08:46:50Z</time>
      </trkpt>
      <trkpt lat="42.141561" lon="1.590943">
        <ele>899.0</ele>
        <time>2018-06-24T08:46:57Z</time>
      </trkpt>
      <trkpt lat="42.141411" lon="1.590939">
        <ele>897.5</ele>
        <time>2018-06-24T08:47:08Z</time>
      </trkpt>
      <trkpt lat="42.141385" lon="1.590948">
        <ele>897.5</ele>
        <time>2018-06-24T08:47:09Z</time>
      </trkpt>
      <trkpt lat="42.141258" lon="1.590901">
        <ele>895.6</ele>
        <time>2018-06-24T08:47:19Z</time>
      </trkpt>
      <trkpt lat="42.141193" lon="1.590823">
        <ele>894.2</ele>
        <time>2018-06-24T08:47:26Z</time>
      </trkpt>
      <trkpt lat="42.141119" lon="1.590802">
        <ele>892.2</ele>
        <time>2018-06-24T08:47:35Z</time>
      </trkpt>
      <trkpt lat="42.140986" lon="1.590628">
        <ele>891.8</ele>
        <time>2018-06-24T08:47:44Z</time>
      </trkpt>
      <trkpt lat="42.140839" lon="1.590431">
        <ele>891.8</ele>
        <time>2018-06-24T08:47:55Z</time>
      </trkpt>
      <trkpt lat="42.140836" lon="1.590425">
        <ele>891.3</ele>
        <time>2018-06-24T08:47:56Z</time>
      </trkpt>
      <trkpt lat="42.140834" lon="1.590383">
        <ele>889.8</ele>
        <time>2018-06-24T08:48:00Z</time>
      </trkpt>
      <trkpt lat="42.140844" lon="1.590364">
        <ele>890.8</ele>
        <time>2018-06-24T08:48:01Z</time>
      </trkpt>
      <trkpt lat="42.140957" lon="1.590214">
        <ele>888.9</ele>
        <time>2018-06-24T08:48:09Z</time>
      </trkpt>
      <trkpt lat="42.140994" lon="1.590188">
        <ele>887.4</ele>
        <time>2018-06-24T08:48:12Z</time>
      </trkpt>
      <trkpt lat="42.141032" lon="1.590040">
        <ele>887.4</ele>
        <time>2018-06-24T08:48:18Z</time>
      </trkpt>
      <trkpt lat="42.141001" lon="1.589946">
        <ele>887.4</ele>
        <time>2018-06-24T08:48:30Z</time>
      </trkpt>
      <trkpt lat="42.141028" lon="1.589808">
        <ele>888.9</ele>
        <time>2018-06-24T08:48:39Z</time>
      </trkpt>
      <trkpt lat="42.141021" lon="1.589722">
        <ele>891.3</ele>
        <time>2018-06-24T08:48:47Z</time>
      </trkpt>
      <trkpt lat="42.141034" lon="1.589549">
        <ele>894.6</ele>
        <time>2018-06-24T08:48:58Z</time>
      </trkpt>
      <trkpt lat="42.140998" lon="1.589454">
        <ele>897.0</ele>
        <time>2018-06-24T08:49:08Z</time>
      </trkpt>
      <trkpt lat="42.140968" lon="1.589499">
        <ele>897.5</ele>
        <time>2018-06-24T08:49:13Z</time>
      </trkpt>
      <trkpt lat="42.140953" lon="1.589558">
        <ele>899.5</ele>
        <time>2018-06-24T08:49:19Z</time>
      </trkpt>
      <trkpt lat="42.140891" lon="1.589628">
        <ele>900.4</ele>
        <time>2018-06-24T08:49:29Z</time>
      </trkpt>
      <trkpt lat="42.140847" lon="1.589649">
        <ele>900.9</ele>
        <time>2018-06-24T08:49:32Z</time>
      </trkpt>
      <trkpt lat="42.140831" lon="1.589664">
        <ele>901.4</ele>
        <time>2018-06-24T08:49:36Z</time>
      </trkpt>
      <trkpt lat="42.140820" lon="1.589693">
        <ele>901.4</ele>
        <time>2018-06-24T08:49:38Z</time>
      </trkpt>
      <trkpt lat="42.140779" lon="1.589708">
        <ele>902.8</ele>
        <time>2018-06-24T08:49:41Z</time>
      </trkpt>
      <trkpt lat="42.140733" lon="1.589730">
        <ele>904.3</ele>
        <time>2018-06-24T08:49:48Z</time>
      </trkpt>
      <trkpt lat="42.140722" lon="1.589735">
        <ele>904.7</ele>
        <time>2018-06-24T08:49:50Z</time>
      </trkpt>
      <trkpt lat="42.140696" lon="1.589722">
        <ele>905.2</ele>
        <time>2018-06-24T08:49:53Z</time>
      </trkpt>
      <trkpt lat="42.140596" lon="1.589689">
        <ele>907.6</ele>
        <time>2018-06-24T08:50:05Z</time>
      </trkpt>
      <trkpt lat="42.140488" lon="1.589689">
        <ele>908.1</ele>
        <time>2018-06-24T08:50:14Z</time>
      </trkpt>
      <trkpt lat="42.140403" lon="1.589716">
        <ele>909.1</ele>
        <time>2018-06-24T08:50:21Z</time>
      </trkpt>
      <trkpt lat="42.140277" lon="1.589773">
        <ele>911.0</ele>
        <time>2018-06-24T08:50:31Z</time>
      </trkpt>
      <trkpt lat="42.140273" lon="1.589772">
        <ele>911.0</ele>
        <time>2018-06-24T08:50:33Z</time>
      </trkpt>
      <trkpt lat="42.140153" lon="1.589797">
        <ele>912.9</ele>
        <time>2018-06-24T08:50:42Z</time>
      </trkpt>
      <trkpt lat="42.140142" lon="1.589809">
        <ele>913.4</ele>
        <time>2018-06-24T08:50:44Z</time>
      </trkpt>
      <trkpt lat="42.140045" lon="1.589844">
        <ele>914.3</ele>
        <time>2018-06-24T08:50:52Z</time>
      </trkpt>
      <trkpt lat="42.139978" lon="1.589860">
        <ele>915.3</ele>
        <time>2018-06-24T08:50:57Z</time>
      </trkpt>
      <trkpt lat="42.139899" lon="1.589867">
        <ele>915.3</ele>
        <time>2018-06-24T08:51:01Z</time>
      </trkpt>
      <trkpt lat="42.139772" lon="1.589899">
        <ele>915.8</ele>
        <time>2018-06-24T08:51:10Z</time>
      </trkpt>
      <trkpt lat="42.139731" lon="1.589929">
        <ele>916.3</ele>
        <time>2018-06-24T08:51:16Z</time>
      </trkpt>
      <trkpt lat="42.139602" lon="1.589965">
        <ele>917.2</ele>
        <time>2018-06-24T08:51:26Z</time>
      </trkpt>
      <trkpt lat="42.139596" lon="1.589968">
        <ele>916.7</ele>
        <time>2018-06-24T08:51:27Z</time>
      </trkpt>
      <trkpt lat="42.139453" lon="1.590003">
        <ele>917.7</ele>
        <time>2018-06-24T08:51:36Z</time>
      </trkpt>
      <trkpt lat="42.139441" lon="1.590024">
        <ele>917.7</ele>
        <time>2018-06-24T08:51:39Z</time>
      </trkpt>
      <trkpt lat="42.139413" lon="1.590035">
        <ele>918.2</ele>
        <time>2018-06-24T08:51:41Z</time>
      </trkpt>
      <trkpt lat="42.139266" lon="1.590093">
        <ele>918.7</ele>
        <time>2018-06-24T08:51:48Z</time>
      </trkpt>
      <trkpt lat="42.139248" lon="1.590139">
        <ele>919.2</ele>
        <time>2018-06-24T08:51:53Z</time>
      </trkpt>
      <trkpt lat="42.139179" lon="1.590263">
        <ele>920.6</ele>
        <time>2018-06-24T08:52:03Z</time>
      </trkpt>
      <trkpt lat="42.139187" lon="1.590283">
        <ele>919.6</ele>
        <time>2018-06-24T08:52:05Z</time>
      </trkpt>
      <trkpt lat="42.139246" lon="1.590490">
        <ele>918.7</ele>
        <time>2018-06-24T08:52:14Z</time>
      </trkpt>
      <trkpt lat="42.139227" lon="1.590498">
        <ele>918.2</ele>
        <time>2018-06-24T08:52:17Z</time>
      </trkpt>
      <trkpt lat="42.139202" lon="1.590579">
        <ele>917.7</ele>
        <time>2018-06-24T08:52:22Z</time>
      </trkpt>
      <trkpt lat="42.139192" lon="1.590671">
        <ele>917.7</ele>
        <time>2018-06-24T08:52:25Z</time>
      </trkpt>
      <trkpt lat="42.139209" lon="1.590753">
        <ele>917.2</ele>
        <time>2018-06-24T08:52:28Z</time>
      </trkpt>
      <trkpt lat="42.139277" lon="1.590806">
        <ele>916.3</ele>
        <time>2018-06-24T08:52:32Z</time>
      </trkpt>
      <trkpt lat="42.139315" lon="1.590914">
        <ele>915.3</ele>
        <time>2018-06-24T08:52:41Z</time>
      </trkpt>
      <trkpt lat="42.139326" lon="1.591166">
        <ele>914.8</ele>
        <time>2018-06-24T08:52:47Z</time>
      </trkpt>
      <trkpt lat="42.139349" lon="1.591227">
        <ele>912.9</ele>
        <time>2018-06-24T08:52:57Z</time>
      </trkpt>
      <trkpt lat="42.139354" lon="1.591259">
        <ele>912.4</ele>
        <time>2018-06-24T08:53:03Z</time>
      </trkpt>
      <trkpt lat="42.139414" lon="1.591402">
        <ele>912.0</ele>
        <time>2018-06-24T08:53:11Z</time>
      </trkpt>
      <trkpt lat="42.139433" lon="1.591666">
        <ele>909.1</ele>
        <time>2018-06-24T08:53:24Z</time>
      </trkpt>
      <trkpt lat="42.139438" lon="1.591705">
        <ele>909.1</ele>
        <time>2018-06-24T08:53:27Z</time>
      </trkpt>
      <trkpt lat="42.139447" lon="1.591832">
        <ele>908.1</ele>
        <time>2018-06-24T08:53:31Z</time>
      </trkpt>
      <trkpt lat="42.139445" lon="1.591850">
        <ele>906.2</ele>
        <time>2018-06-24T08:53:40Z</time>
      </trkpt>
      <trkpt lat="42.139419" lon="1.591966">
        <ele>905.7</ele>
        <time>2018-06-24T08:53:44Z</time>
      </trkpt>
      <trkpt lat="42.139404" lon="1.592341">
        <ele>903.3</ele>
        <time>2018-06-24T08:53:55Z</time>
      </trkpt>
      <trkpt lat="42.139418" lon="1.592337">
        <ele>901.8</ele>
        <time>2018-06-24T08:54:04Z</time>
      </trkpt>
      <trkpt lat="42.139427" lon="1.592419">
        <ele>901.4</ele>
        <time>2018-06-24T08:54:09Z</time>
      </trkpt>
      <trkpt lat="42.139484" lon="1.592824">
        <ele>900.4</ele>
        <time>2018-06-24T08:54:20Z</time>
      </trkpt>
      <trkpt lat="42.139505" lon="1.592845">
        <ele>898.0</ele>
        <time>2018-06-24T08:54:28Z</time>
      </trkpt>
      <trkpt lat="42.139493" lon="1.592871">
        <ele>897.0</ele>
        <time>2018-06-24T08:54:36Z</time>
      </trkpt>
      <trkpt lat="42.139418" lon="1.592919">
        <ele>897.0</ele>
        <time>2018-06-24T08:54:43Z</time>
      </trkpt>
      <trkpt lat="42.139162" lon="1.593045">
        <ele>897.0</ele>
        <time>2018-06-24T08:54:53Z</time>
      </trkpt>
      <trkpt lat="42.139142" lon="1.593066">
        <ele>896.6</ele>
        <time>2018-06-24T08:55:02Z</time>
      </trkpt>
      <trkpt lat="42.139042" lon="1.593126">
        <ele>897.0</ele>
        <time>2018-06-24T08:55:13Z</time>
      </trkpt>
      <trkpt lat="42.138772" lon="1.593208">
        <ele>896.6</ele>
        <time>2018-06-24T08:55:21Z</time>
      </trkpt>
      <trkpt lat="42.138666" lon="1.593235">
        <ele>897.0</ele>
        <time>2018-06-24T08:55:30Z</time>
      </trkpt>
      <trkpt lat="42.138671" lon="1.593241">
        <ele>897.5</ele>
        <time>2018-06-24T08:55:34Z</time>
      </trkpt>
      <trkpt lat="42.138587" lon="1.593375">
        <ele>897.0</ele>
        <time>2018-06-24T08:55:43Z</time>
      </trkpt>
      <trkpt lat="42.138593" lon="1.593405">
        <ele>896.6</ele>
        <time>2018-06-24T08:55:52Z</time>
      </trkpt>
      <trkpt lat="42.138594" lon="1.593417">
        <ele>896.6</ele>
        <time>2018-06-24T08:56:12Z</time>
      </trkpt>
      <trkpt lat="42.138592" lon="1.593431">
        <ele>896.1</ele>
        <time>2018-06-24T08:56:30Z</time>
      </trkpt>
      <trkpt lat="42.138594" lon="1.593426">
        <ele>896.6</ele>
        <time>2018-06-24T08:56:33Z</time>
      </trkpt>
      <trkpt lat="42.138568" lon="1.593418">
        <ele>896.6</ele>
        <time>2018-06-24T08:56:49Z</time>
      </trkpt>
      <trkpt lat="42.138565" lon="1.593437">
        <ele>896.6</ele>
        <time>2018-06-24T08:56:53Z</time>
      </trkpt>
      <trkpt lat="42.138552" lon="1.593599">
        <ele>895.6</ele>
        <time>2018-06-24T08:56:59Z</time>
      </trkpt>
      <trkpt lat="42.138387" lon="1.593773">
        <ele>894.2</ele>
        <time>2018-06-24T08:57:08Z</time>
      </trkpt>
      <trkpt lat="42.138353" lon="1.593764">
        <ele>894.2</ele>
        <time>2018-06-24T08:57:11Z</time>
      </trkpt>
      <trkpt lat="42.138330" lon="1.593741">
        <ele>893.7</ele>
        <time>2018-06-24T08:57:15Z</time>
      </trkpt>
      <trkpt lat="42.138258" lon="1.593686">
        <ele>895.6</ele>
        <time>2018-06-24T08:57:22Z</time>
      </trkpt>
      <trkpt lat="42.138181" lon="1.593675">
        <ele>896.6</ele>
        <time>2018-06-24T08:57:29Z</time>
      </trkpt>
      <trkpt lat="42.138152" lon="1.593726">
        <ele>897.5</ele>
        <time>2018-06-24T08:57:34Z</time>
      </trkpt>
      <trkpt lat="42.138089" lon="1.593865">
        <ele>898.5</ele>
        <time>2018-06-24T08:57:44Z</time>
      </trkpt>
      <trkpt lat="42.138065" lon="1.593888">
        <ele>898.5</ele>
        <time>2018-06-24T08:57:47Z</time>
      </trkpt>
      <trkpt lat="42.138009" lon="1.593935">
        <ele>899.5</ele>
        <time>2018-06-24T08:57:52Z</time>
      </trkpt>
      <trkpt lat="42.137940" lon="1.593963">
        <ele>900.9</ele>
        <time>2018-06-24T08:57:59Z</time>
      </trkpt>
      <trkpt lat="42.137925" lon="1.593967">
        <ele>901.4</ele>
        <time>2018-06-24T08:58:01Z</time>
      </trkpt>
      <trkpt lat="42.137913" lon="1.593984">
        <ele>901.8</ele>
        <time>2018-06-24T08:58:03Z</time>
      </trkpt>
      <trkpt lat="42.137881" lon="1.594031">
        <ele>901.8</ele>
        <time>2018-06-24T08:58:16Z</time>
      </trkpt>
      <trkpt lat="42.137878" lon="1.594026">
        <ele>901.8</ele>
        <time>2018-06-24T08:58:34Z</time>
      </trkpt>
      <trkpt lat="42.137859" lon="1.594055">
        <ele>902.3</ele>
        <time>2018-06-24T08:58:47Z</time>
      </trkpt>
      <trkpt lat="42.137834" lon="1.594084">
        <ele>903.3</ele>
        <time>2018-06-24T08:58:51Z</time>
      </trkpt>
      <trkpt lat="42.137784" lon="1.594146">
        <ele>905.7</ele>
        <time>2018-06-24T08:59:00Z</time>
      </trkpt>
      <trkpt lat="42.137759" lon="1.594182">
        <ele>906.7</ele>
        <time>2018-06-24T08:59:03Z</time>
      </trkpt>
      <trkpt lat="42.137726" lon="1.594221">
        <ele>907.6</ele>
        <time>2018-06-24T08:59:07Z</time>
      </trkpt>
      <trkpt lat="42.137685" lon="1.594261">
        <ele>908.1</ele>
        <time>2018-06-24T08:59:12Z</time>
      </trkpt>
      <trkpt lat="42.137605" lon="1.594345">
        <ele>909.1</ele>
        <time>2018-06-24T08:59:21Z</time>
      </trkpt>
      <trkpt lat="42.137574" lon="1.594397">
        <ele>910.0</ele>
        <time>2018-06-24T08:59:26Z</time>
      </trkpt>
      <trkpt lat="42.137507" lon="1.594508">
        <ele>912.0</ele>
        <time>2018-06-24T08:59:38Z</time>
      </trkpt>
      <trkpt lat="42.137470" lon="1.594581">
        <ele>913.9</ele>
        <time>2018-06-24T08:59:46Z</time>
      </trkpt>
      <trkpt lat="42.137416" lon="1.594652">
        <ele>915.8</ele>
        <time>2018-06-24T08:59:59Z</time>
      </trkpt>
      <trkpt lat="42.137417" lon="1.594675">
        <ele>915.8</ele>
        <time>2018-06-24T09:00:11Z</time>
      </trkpt>
      <trkpt lat="42.137378" lon="1.594722">
        <ele>915.8</ele>
        <time>2018-06-24T09:00:16Z</time>
      </trkpt>
      <trkpt lat="42.137334" lon="1.594817">
        <ele>918.7</ele>
        <time>2018-06-24T09:00:28Z</time>
      </trkpt>
      <trkpt lat="42.137263" lon="1.594887">
        <ele>920.1</ele>
        <time>2018-06-24T09:00:40Z</time>
      </trkpt>
      <trkpt lat="42.137249" lon="1.594891">
        <ele>920.1</ele>
        <time>2018-06-24T09:00:43Z</time>
      </trkpt>
      <trkpt lat="42.137168" lon="1.594973">
        <ele>920.1</ele>
        <time>2018-06-24T09:00:51Z</time>
      </trkpt>
      <trkpt lat="42.137146" lon="1.595079">
        <ele>919.6</ele>
        <time>2018-06-24T09:00:58Z</time>
      </trkpt>
      <trkpt lat="42.137085" lon="1.595192">
        <ele>919.2</ele>
        <time>2018-06-24T09:01:03Z</time>
      </trkpt>
      <trkpt lat="42.137069" lon="1.595251">
        <ele>919.6</ele>
        <time>2018-06-24T09:01:07Z</time>
      </trkpt>
      <trkpt lat="42.137065" lon="1.595287">
        <ele>919.2</ele>
        <time>2018-06-24T09:01:10Z</time>
      </trkpt>
      <trkpt lat="42.137023" lon="1.595455">
        <ele>917.7</ele>
        <time>2018-06-24T09:01:18Z</time>
      </trkpt>
      <trkpt lat="42.137023" lon="1.595506">
        <ele>917.7</ele>
        <time>2018-06-24T09:01:23Z</time>
      </trkpt>
      <trkpt lat="42.137004" lon="1.595668">
        <ele>916.7</ele>
        <time>2018-06-24T09:01:30Z</time>
      </trkpt>
      <trkpt lat="42.137007" lon="1.595707">
        <ele>917.7</ele>
        <time>2018-06-24T09:01:32Z</time>
      </trkpt>
      <trkpt lat="42.136994" lon="1.595789">
        <ele>917.2</ele>
        <time>2018-06-24T09:01:37Z</time>
      </trkpt>
      <trkpt lat="42.137004" lon="1.595782">
        <ele>917.7</ele>
        <time>2018-06-24T09:01:46Z</time>
      </trkpt>
      <trkpt lat="42.137005" lon="1.595745">
        <ele>917.2</ele>
        <time>2018-06-24T09:01:48Z</time>
      </trkpt>
      <trkpt lat="42.137014" lon="1.595715">
        <ele>918.2</ele>
        <time>2018-06-24T09:01:50Z</time>
      </trkpt>
      <trkpt lat="42.137029" lon="1.595587">
        <ele>918.2</ele>
        <time>2018-06-24T09:01:58Z</time>
      </trkpt>
      <trkpt lat="42.137030" lon="1.595561">
        <ele>918.2</ele>
        <time>2018-06-24T09:02:00Z</time>
      </trkpt>
      <trkpt lat="42.137073" lon="1.595398">
        <ele>918.2</ele>
        <time>2018-06-24T09:02:06Z</time>
      </trkpt>
      <trkpt lat="42.137063" lon="1.595369">
        <ele>918.7</ele>
        <time>2018-06-24T09:02:12Z</time>
      </trkpt>
      <trkpt lat="42.137097" lon="1.595195">
        <ele>919.2</ele>
        <time>2018-06-24T09:02:17Z</time>
      </trkpt>
      <trkpt lat="42.137120" lon="1.595128">
        <ele>919.6</ele>
        <time>2018-06-24T09:02:23Z</time>
      </trkpt>
      <trkpt lat="42.137115" lon="1.595034">
        <ele>920.1</ele>
        <time>2018-06-24T09:02:27Z</time>
      </trkpt>
      <trkpt lat="42.137131" lon="1.594927">
        <ele>920.1</ele>
        <time>2018-06-24T09:02:35Z</time>
      </trkpt>
      <trkpt lat="42.137104" lon="1.594821">
        <ele>919.6</ele>
        <time>2018-06-24T09:02:39Z</time>
      </trkpt>
      <trkpt lat="42.137105" lon="1.594780">
        <ele>920.1</ele>
        <time>2018-06-24T09:02:44Z</time>
      </trkpt>
      <trkpt lat="42.137107" lon="1.594632">
        <ele>919.2</ele>
        <time>2018-06-24T09:02:53Z</time>
      </trkpt>
      <trkpt lat="42.137106" lon="1.594589">
        <ele>919.2</ele>
        <time>2018-06-24T09:02:55Z</time>
      </trkpt>
      <trkpt lat="42.137114" lon="1.594462">
        <ele>918.7</ele>
        <time>2018-06-24T09:03:02Z</time>
      </trkpt>
      <trkpt lat="42.137116" lon="1.594342">
        <ele>918.7</ele>
        <time>2018-06-24T09:03:06Z</time>
      </trkpt>
      <trkpt lat="42.137116" lon="1.594287">
        <ele>918.7</ele>
        <time>2018-06-24T09:03:08Z</time>
      </trkpt>
      <trkpt lat="42.137110" lon="1.594244">
        <ele>917.7</ele>
        <time>2018-06-24T09:03:15Z</time>
      </trkpt>
      <trkpt lat="42.137092" lon="1.594081">
        <ele>917.7</ele>
        <time>2018-06-24T09:03:20Z</time>
      </trkpt>
      <trkpt lat="42.137099" lon="1.593927">
        <ele>916.3</ele>
        <time>2018-06-24T09:03:30Z</time>
      </trkpt>
      <trkpt lat="42.137099" lon="1.593915">
        <ele>915.8</ele>
        <time>2018-06-24T09:03:34Z</time>
      </trkpt>
      <trkpt lat="42.137102" lon="1.593845">
        <ele>915.8</ele>
        <time>2018-06-24T09:03:37Z</time>
      </trkpt>
      <trkpt lat="42.137115" lon="1.593587">
        <ele>914.8</ele>
        <time>2018-06-24T09:03:45Z</time>
      </trkpt>
      <trkpt lat="42.137138" lon="1.593497">
        <ele>914.3</ele>
        <time>2018-06-24T09:03:49Z</time>
      </trkpt>
      <trkpt lat="42.137142" lon="1.593481">
        <ele>913.4</ele>
        <time>2018-06-24T09:03:55Z</time>
      </trkpt>
      <trkpt lat="42.137149" lon="1.593395">
        <ele>912.9</ele>
        <time>2018-06-24T09:04:00Z</time>
      </trkpt>
      <trkpt lat="42.137150" lon="1.593100">
        <ele>912.9</ele>
        <time>2018-06-24T09:04:09Z</time>
      </trkpt>
      <trkpt lat="42.137158" lon="1.593037">
        <ele>912.9</ele>
        <time>2018-06-24T09:04:20Z</time>
      </trkpt>
      <trkpt lat="42.137159" lon="1.593024">
        <ele>912.9</ele>
        <time>2018-06-24T09:04:22Z</time>
      </trkpt>
      <trkpt lat="42.137158" lon="1.593011">
        <ele>912.9</ele>
        <time>2018-06-24T09:04:23Z</time>
      </trkpt>
      <trkpt lat="42.137154" lon="1.592983">
        <ele>912.9</ele>
        <time>2018-06-24T09:04:24Z</time>
      </trkpt>
      <trkpt lat="42.137122" lon="1.592747">
        <ele>912.4</ele>
        <time>2018-06-24T09:04:30Z</time>
      </trkpt>
      <trkpt lat="42.137038" lon="1.592623">
        <ele>911.5</ele>
        <time>2018-06-24T09:04:39Z</time>
      </trkpt>
      <trkpt lat="42.137033" lon="1.592626">
        <ele>911.5</ele>
        <time>2018-06-24T09:04:42Z</time>
      </trkpt>
      <trkpt lat="42.136990" lon="1.592600">
        <ele>911.0</ele>
        <time>2018-06-24T09:04:45Z</time>
      </trkpt>
      <trkpt lat="42.136811" lon="1.592470">
        <ele>910.0</ele>
        <time>2018-06-24T09:04:54Z</time>
      </trkpt>
      <trkpt lat="42.136802" lon="1.592456">
        <ele>909.5</ele>
        <time>2018-06-24T09:05:02Z</time>
      </trkpt>
      <trkpt lat="42.136793" lon="1.592445">
        <ele>910.0</ele>
        <time>2018-06-24T09:05:03Z</time>
      </trkpt>
      <trkpt lat="42.136651" lon="1.592323">
        <ele>910.0</ele>
        <time>2018-06-24T09:05:12Z</time>
      </trkpt>
      <trkpt lat="42.136643" lon="1.592328">
        <ele>910.5</ele>
        <time>2018-06-24T09:05:17Z</time>
      </trkpt>
      <trkpt lat="42.136441" lon="1.592343">
        <ele>911.5</ele>
        <time>2018-06-24T09:05:27Z</time>
      </trkpt>
      <trkpt lat="42.136429" lon="1.592346">
        <ele>911.5</ele>
        <time>2018-06-24T09:05:28Z</time>
      </trkpt>
      <trkpt lat="42.136332" lon="1.592343">
        <ele>911.5</ele>
        <time>2018-06-24T09:05:36Z</time>
      </trkpt>
      <trkpt lat="42.136284" lon="1.592324">
        <ele>912.4</ele>
        <time>2018-06-24T09:05:40Z</time>
      </trkpt>
      <trkpt lat="42.136222" lon="1.592309">
        <ele>912.4</ele>
        <time>2018-06-24T09:05:47Z</time>
      </trkpt>
      <trkpt lat="42.136111" lon="1.592288">
        <ele>912.9</ele>
        <time>2018-06-24T09:05:57Z</time>
      </trkpt>
      <trkpt lat="42.136064" lon="1.592296">
        <ele>913.4</ele>
        <time>2018-06-24T09:06:10Z</time>
      </trkpt>
    </trkseg>
  </trk>
</gpx>
